createdAt,value
2023-05-05T00:01:01.073Z,98790.13
2023-05-05T00:03:28.104Z,98786.06
2023-05-05T00:05:55.416Z,98787.94
2023-05-05T00:08:22.884Z,98784.50
2023-05-05T00:10:51.571Z,98783.59
2023-05-05T00:13:19.536Z,98785.56
2023-05-05T00:15:47.807Z,98780.34
2023-05-05T00:18:16.631Z,98784.94
2023-05-05T00:20:44.376Z,98774.63
2023-05-05T00:23:11.041Z,98778.16
2023-05-05T00:25:37.948Z,98781.69
2023-05-05T00:28:04.843Z,98772.09
2023-05-05T00:30:31.860Z,98775.03
2023-05-05T00:32:58.488Z,98781.94
2023-05-05T00:35:25.157Z,98777.00
2023-05-05T00:37:51.810Z,98785.59
2023-05-05T00:40:18.881Z,98783.06
2023-05-05T00:42:47.403Z,98772.75
2023-05-05T00:45:15.492Z,98781.44
2023-05-05T00:47:43.684Z,98769.47
2023-05-05T00:50:14.553Z,98764.44
2023-05-05T00:52:41.238Z,98770.44
2023-05-05T00:55:08.322Z,98771.28
2023-05-05T00:57:35.726Z,98773.19
2023-05-05T01:00:02.968Z,98769.72
2023-05-05T01:02:31.293Z,98777.59
2023-05-05T01:04:58.565Z,98767.50
2023-05-05T01:07:43.488Z,98768.25
2023-05-05T01:10:20.748Z,98764.97
2023-05-05T01:13:22.544Z,98765.03
2023-05-05T01:16:01.083Z,98759.84
2023-05-05T01:18:41.674Z,98763.53
2023-05-05T01:21:18.597Z,98757.41
2023-05-05T01:23:57.125Z,98761.13
2023-05-05T01:26:42.788Z,98762.22
2023-05-05T01:29:41.510Z,98757.22
2023-05-05T01:32:11.477Z,98761.66
2023-05-05T01:35:08.894Z,98761.59
2023-05-05T01:37:47.730Z,98778.88
2023-05-05T01:40:18.315Z,98769.47
2023-05-05T01:42:45.280Z,98769.72
2023-05-05T01:45:14.705Z,98769.91
2023-05-05T01:47:44.093Z,98774.38
2023-05-05T01:50:12.503Z,98776.97
2023-05-05T01:52:41.158Z,98771.03
2023-05-05T01:55:09.939Z,98773.69
2023-05-05T01:57:39.147Z,98773.72
2023-05-05T02:00:07.408Z,98775.44
2023-05-05T02:02:36.151Z,98783.44
2023-05-05T02:05:04.510Z,98785.03
2023-05-05T02:07:34.302Z,98779.13
2023-05-05T02:10:03.221Z,98780.88
2023-05-05T02:12:31.695Z,98781.66
2023-05-05T02:15:01.594Z,98777.31
2023-05-05T02:17:30.094Z,98773.91
2023-05-05T02:19:59.071Z,98780.88
2023-05-05T02:22:25.697Z,98772.31
2023-05-05T02:24:52.624Z,98784.50
2023-05-05T02:27:21.786Z,98780.28
2023-05-05T02:29:57.263Z,98782.94
2023-05-05T02:32:31.756Z,98781.38
2023-05-05T02:35:01.780Z,98779.69
2023-05-05T02:37:31.739Z,98781.25
2023-05-05T02:40:02.810Z,98776.06
2023-05-05T02:42:35.063Z,98776.97
2023-05-05T02:45:08.037Z,98774.38
2023-05-05T02:47:36.630Z,98781.25
2023-05-05T02:50:08.428Z,98778.72
2023-05-05T02:52:36.104Z,98783.25
2023-05-05T02:55:05.587Z,98771.34
2023-05-05T02:57:44.888Z,98771.22
2023-05-05T03:00:20.878Z,98775.53
2023-05-05T03:03:06.939Z,98777.28
2023-05-05T03:05:45.890Z,98782.41
2023-05-05T03:08:30.129Z,98779.94
2023-05-05T03:11:08.109Z,98783.63
2023-05-05T03:13:37.251Z,98784.53
2023-05-05T03:16:06.978Z,98792.25
2023-05-05T03:18:40.788Z,98790.47
2023-05-05T03:21:10.329Z,98788.75
2023-05-05T03:23:37.225Z,98795.78
2023-05-05T03:26:03.933Z,98799.28
2023-05-05T03:28:31.571Z,98789.00
2023-05-05T03:30:58.148Z,98782.25
2023-05-05T03:33:27.723Z,98790.94
2023-05-05T03:35:54.399Z,98795.13
2023-05-05T03:38:20.983Z,98797.88
2023-05-05T03:40:47.603Z,98794.66
2023-05-05T03:43:14.361Z,98802.41
2023-05-05T03:45:41.086Z,98798.00
2023-05-05T03:48:09.730Z,98797.84
2023-05-05T03:50:36.745Z,98809.06
2023-05-05T03:53:03.481Z,98797.00
2023-05-05T03:55:30.118Z,98798.59
2023-05-05T03:57:56.758Z,98796.13
2023-05-05T04:00:23.497Z,98794.44
2023-05-05T04:02:50.220Z,98796.31
2023-05-05T04:05:17.033Z,98797.88
2023-05-05T04:07:43.614Z,98803.03
2023-05-05T04:10:13.321Z,98812.47
2023-05-05T04:12:39.981Z,98817.53
2023-05-05T04:15:07.080Z,98820.06
2023-05-05T04:17:36.499Z,98821.41
2023-05-05T04:20:03.469Z,98815.22
2023-05-05T04:22:32.839Z,98816.63
2023-05-05T04:24:59.508Z,98817.94
2023-05-05T04:27:26.386Z,98812.44
2023-05-05T04:29:53.011Z,98822.22
2023-05-05T04:32:19.698Z,98821.13
2023-05-05T04:34:46.916Z,98822.75
2023-05-05T04:37:13.813Z,98823.31
2023-05-05T04:39:41.533Z,98830.50
2023-05-05T04:42:09.053Z,98834.41
2023-05-05T04:44:35.872Z,98825.69
2023-05-05T04:47:02.680Z,98836.34
2023-05-05T04:49:30.383Z,98837.47
2023-05-05T04:51:57.605Z,98835.88
2023-05-05T04:54:24.191Z,98832.72
2023-05-05T04:56:51.004Z,98843.25
2023-05-05T04:59:17.673Z,98848.66
2023-05-05T05:01:44.811Z,98850.34
2023-05-05T05:04:11.519Z,98841.09
2023-05-05T05:06:38.143Z,98850.31
2023-05-05T05:09:04.797Z,98846.22
2023-05-05T05:11:31.493Z,98847.94
2023-05-05T05:13:58.069Z,98848.66
2023-05-05T05:16:25.207Z,98854.59
2023-05-05T05:18:51.919Z,98852.16
2023-05-05T05:21:18.507Z,98857.41
2023-05-05T05:23:45.093Z,98858.25
2023-05-05T05:26:11.799Z,98862.47
2023-05-05T05:28:41.129Z,98861.75
2023-05-05T05:31:07.874Z,98865.75
2023-05-05T05:33:34.491Z,98868.78
2023-05-05T05:36:01.051Z,98872.00
2023-05-05T05:38:27.621Z,98865.44
2023-05-05T05:40:54.641Z,98868.19
2023-05-05T05:43:21.383Z,98867.50
2023-05-05T05:45:48.125Z,98870.13
2023-05-05T05:48:14.791Z,98858.97
2023-05-05T05:50:41.722Z,98867.66
2023-05-05T05:53:08.367Z,98859.84
2023-05-05T05:55:35.356Z,98865.88
2023-05-05T05:58:01.916Z,98871.94
2023-05-05T06:00:28.562Z,98861.50
2023-05-05T06:02:55.247Z,98874.31
2023-05-05T06:05:21.826Z,98872.31
2023-05-05T06:07:48.398Z,98878.28
2023-05-05T06:10:25.645Z,98879.63
2023-05-05T06:12:53.883Z,98876.91
2023-05-05T06:15:20.871Z,98867.06
2023-05-05T06:17:47.650Z,98869.41
2023-05-05T06:20:14.241Z,98864.63
2023-05-05T06:22:40.918Z,98868.41
2023-05-05T06:25:07.851Z,98861.97
2023-05-05T06:27:34.769Z,98862.44
2023-05-05T06:30:01.396Z,98851.53
2023-05-05T06:32:28.038Z,98863.03
2023-05-05T06:34:54.699Z,98861.69
2023-05-05T06:37:21.405Z,98859.53
2023-05-05T06:39:48.012Z,98857.19
2023-05-05T06:42:14.604Z,98869.16
2023-05-05T06:44:41.572Z,98869.84
2023-05-05T06:47:08.173Z,98867.31
2023-05-05T06:49:34.801Z,98865.22
2023-05-05T06:52:01.696Z,98869.72
2023-05-05T06:54:28.289Z,98873.63
2023-05-05T06:56:54.842Z,98868.72
2023-05-05T06:59:21.563Z,98869.25
2023-05-05T07:01:48.204Z,98868.66
2023-05-05T07:04:14.914Z,98869.75
2023-05-05T07:06:41.610Z,98870.09
2023-05-05T07:09:08.375Z,98867.84
2023-05-05T07:11:35.192Z,98858.56
2023-05-05T07:14:02.292Z,98859.41
2023-05-05T07:16:28.989Z,98849.69
2023-05-05T07:18:55.625Z,98855.59
2023-05-05T07:21:24.381Z,98853.34
2023-05-05T07:23:50.935Z,98857.03
2023-05-05T07:26:17.618Z,98849.41
2023-05-05T07:28:44.778Z,98842.19
2023-05-05T07:31:11.384Z,98847.88
2023-05-05T07:33:38.036Z,98848.78
2023-05-05T07:36:05.097Z,98852.06
2023-05-05T07:38:32.061Z,98839.38
2023-05-05T07:40:58.700Z,98844.94
2023-05-05T07:43:25.812Z,98838.69
2023-05-05T07:45:52.499Z,98844.00
2023-05-05T07:48:19.215Z,98850.91
2023-05-05T07:50:46.020Z,98845.19
2023-05-05T07:53:14.743Z,98842.75
2023-05-05T07:55:42.165Z,98838.41
2023-05-05T07:58:12.638Z,98834.78
2023-05-05T08:00:39.895Z,98828.50
2023-05-05T08:03:08.939Z,98831.97
2023-05-05T08:05:38.492Z,98829.41
2023-05-05T08:08:06.192Z,98829.94
2023-05-05T08:10:32.784Z,98833.16
2023-05-05T08:12:59.476Z,98829.13
2023-05-05T08:15:26.174Z,98836.31
2023-05-05T08:17:56.093Z,98827.94
2023-05-05T08:20:23.123Z,98834.88
2023-05-05T08:22:49.772Z,98823.25
2023-05-05T08:25:16.351Z,98820.16
2023-05-05T08:27:43.354Z,98826.84
2023-05-05T08:30:10.844Z,98810.72
2023-05-05T08:32:38.539Z,98815.81
2023-05-05T08:35:06.565Z,98812.03
2023-05-05T08:37:33.550Z,98813.88
2023-05-05T08:40:00.407Z,98816.03
2023-05-05T08:42:37.273Z,98807.53
2023-05-05T08:45:07.768Z,98807.13
2023-05-05T08:47:36.833Z,98812.66
2023-05-05T08:50:05.710Z,98806.25
2023-05-05T08:52:44.680Z,98807.75
2023-05-05T08:55:27.330Z,98795.28
2023-05-05T08:57:58.478Z,98794.69
2023-05-05T09:00:27.263Z,98796.97
2023-05-05T09:02:57.573Z,98793.34
2023-05-05T09:05:25.030Z,98785.78
2023-05-05T09:07:51.684Z,98786.50
2023-05-05T09:10:18.867Z,98780.19
2023-05-05T09:12:45.646Z,98777.56
2023-05-05T09:15:14.428Z,98776.38
2023-05-05T09:17:41.869Z,98772.53
2023-05-05T09:20:10.589Z,98765.09
2023-05-05T09:22:42.028Z,98758.41
2023-05-05T09:25:14.030Z,98757.06
2023-05-05T09:27:50.490Z,98752.16
2023-05-05T09:30:25.645Z,98748.28
2023-05-05T09:32:56.546Z,98748.06
2023-05-05T09:35:23.646Z,98750.56
2023-05-05T09:37:50.361Z,98755.97
2023-05-05T09:40:19.154Z,98754.16
2023-05-05T09:42:46.317Z,98747.22
2023-05-05T09:45:19.074Z,98753.47
2023-05-05T09:47:49.335Z,98742.31
2023-05-05T09:50:20.615Z,98743.38
2023-05-05T09:53:03.616Z,98749.25
2023-05-05T09:55:33.489Z,98744.97
2023-05-05T09:58:26.495Z,98749.50
2023-05-05T10:00:54.801Z,98740.88
2023-05-05T10:03:21.789Z,98745.91
2023-05-05T10:05:50.556Z,98742.31
2023-05-05T10:08:19.648Z,98737.84
2023-05-05T10:10:59.606Z,98741.47
2023-05-05T10:13:27.185Z,98740.63
2023-05-05T10:15:55.842Z,98737.63
2023-05-05T10:18:27.154Z,98742.31
2023-05-05T10:20:58.470Z,98740.38
2023-05-05T10:23:49.480Z,98733.19
2023-05-05T10:26:19.960Z,98735.81
2023-05-05T10:28:56.923Z,98736.28
2023-05-05T10:31:32.979Z,98723.94
2023-05-05T10:34:21.464Z,98726.44
2023-05-05T10:36:49.812Z,98725.47
2023-05-05T10:39:19.847Z,98729.56
2023-05-05T10:41:48.259Z,98724.28
2023-05-05T10:44:15.635Z,98724.06
2023-05-05T10:46:44.291Z,98720.19
2023-05-05T10:49:29.016Z,98710.50
2023-05-05T10:52:02.114Z,98716.34
2023-05-05T10:54:32.695Z,98713.47
2023-05-05T10:57:02.624Z,98714.06
2023-05-05T10:59:38.860Z,98715.25
2023-05-05T11:02:26.790Z,98707.25
2023-05-05T11:05:10.471Z,98705.28
2023-05-05T11:07:39.822Z,98699.78
2023-05-05T11:10:11.610Z,98705.63
2023-05-05T11:13:10.638Z,98699.88
2023-05-05T11:15:38.048Z,98699.78
2023-05-05T11:18:07.928Z,98695.91
2023-05-05T11:20:39.780Z,98696.63
2023-05-05T11:23:06.663Z,98697.09
2023-05-05T11:25:41.050Z,98695.16
2023-05-05T11:28:16.761Z,98696.13
2023-05-05T11:30:56.011Z,98700.44
2023-05-05T11:33:33.648Z,98698.16
2023-05-05T11:36:03.408Z,98692.56
2023-05-05T11:39:11.448Z,98688.97
2023-05-05T11:41:47.390Z,98687.28
2023-05-05T11:44:21.194Z,98686.34
2023-05-05T11:46:54.308Z,98685.69
2023-05-05T11:49:37.487Z,98680.00
2023-05-05T11:52:04.981Z,98688.78
2023-05-05T11:54:34.611Z,98689.63
2023-05-05T11:57:05.135Z,98677.63
2023-05-05T11:59:33.309Z,98683.50
2023-05-05T12:02:03.361Z,98681.56
2023-05-05T12:04:34.298Z,98674.72
2023-05-05T12:07:01.099Z,98679.06
2023-05-05T12:09:27.864Z,98677.28
2023-05-05T12:11:59.820Z,98657.69
2023-05-05T12:14:30.042Z,98661.03
2023-05-05T12:17:06.816Z,98669.09
2023-05-05T12:19:33.920Z,98669.09
2023-05-05T12:22:05.225Z,98671.03
2023-05-05T12:24:31.912Z,98656.03
2023-05-05T12:27:11.689Z,98663.69
2023-05-05T12:29:38.366Z,98655.63
2023-05-05T12:32:05.752Z,98659.34
2023-05-05T12:34:32.960Z,98650.75
2023-05-05T12:36:59.772Z,98651.44
2023-05-05T12:39:38.658Z,98655.75
2023-05-05T12:42:08.713Z,98644.94
2023-05-05T12:44:46.683Z,98648.28
2023-05-05T12:47:14.476Z,98641.78
2023-05-05T12:49:47.014Z,98634.56
2023-05-05T12:52:14.481Z,98639.97
2023-05-05T12:54:58.655Z,98635.53
2023-05-05T12:57:26.155Z,98623.03
2023-05-05T12:59:53.450Z,98621.50
2023-05-05T13:02:21.018Z,98615.81
2023-05-05T13:04:52.949Z,98617.50
2023-05-05T13:07:22.823Z,98623.38
2023-05-05T13:09:50.343Z,98610.25
2023-05-05T13:12:21.730Z,98612.53
2023-05-05T13:14:49.356Z,98613.63
2023-05-05T13:17:16.007Z,98608.34
2023-05-05T13:19:46.058Z,98600.41
2023-05-05T13:22:13.628Z,98598.63
2023-05-05T13:24:50.651Z,98599.47
2023-05-05T13:27:18.934Z,98585.53
2023-05-05T13:29:48.574Z,98598.31
2023-05-05T13:32:15.372Z,98589.41
2023-05-05T13:34:43.613Z,98583.31
2023-05-05T13:37:10.382Z,98582.47
2023-05-05T13:39:37.134Z,98574.13
2023-05-05T13:42:03.900Z,98573.06
2023-05-05T13:44:30.519Z,98574.00
2023-05-05T13:46:57.303Z,98566.78
2023-05-05T13:49:24.024Z,98564.16
2023-05-05T13:51:50.869Z,98569.44
2023-05-05T13:54:17.570Z,98556.38
2023-05-05T13:56:44.306Z,98554.56
2023-05-05T13:59:10.984Z,98559.84
2023-05-05T14:01:38.085Z,98545.94
2023-05-05T14:04:05.934Z,98543.94
2023-05-05T14:06:33.683Z,98548.41
2023-05-05T14:09:00.629Z,98542.00
2023-05-05T14:11:27.572Z,98547.72
2023-05-05T14:13:54.215Z,98545.53
2023-05-05T14:16:20.900Z,98541.84
2023-05-05T14:18:50.674Z,98535.84
2023-05-05T14:21:17.324Z,98533.91
2023-05-05T14:23:46.776Z,98531.94
2023-05-05T14:26:13.528Z,98533.63
2023-05-05T14:28:40.169Z,98536.28
2023-05-05T14:31:06.958Z,98530.00
2023-05-05T14:33:33.569Z,98525.84
2023-05-05T14:36:00.160Z,98528.63
2023-05-05T14:38:26.832Z,98528.97
2023-05-05T14:40:54.707Z,98527.91
2023-05-05T14:43:21.948Z,98524.81
2023-05-05T14:45:50.418Z,98526.47
2023-05-05T14:48:17.683Z,98528.16
2023-05-05T14:50:46.368Z,98525.53
2023-05-05T14:53:12.987Z,98518.53
2023-05-05T14:55:39.571Z,98518.81
2023-05-05T14:58:06.350Z,98522.44
2023-05-05T15:00:33.087Z,98518.09
2023-05-05T15:02:59.816Z,98515.47
2023-05-05T15:05:26.620Z,98515.75
2023-05-05T15:07:53.192Z,98518.09
2023-05-05T15:10:21.828Z,98516.19
2023-05-05T15:12:48.918Z,98517.97
2023-05-05T15:15:15.579Z,98514.66
2023-05-05T15:17:43.211Z,98511.88
2023-05-05T15:20:10.295Z,98512.00
2023-05-05T15:22:36.957Z,98521.59
2023-05-05T15:25:03.860Z,98507.53
2023-05-05T15:27:31.717Z,98519.78
2023-05-05T15:29:58.463Z,98507.81
2023-05-05T15:32:25.224Z,98515.47
2023-05-05T15:34:51.933Z,98510.47
2023-05-05T15:37:18.565Z,98514.06
2023-05-05T15:39:45.249Z,98509.06
2023-05-05T15:42:11.949Z,98512.66
2023-05-05T15:44:38.637Z,98517.66
2023-05-05T15:47:06.489Z,98510.72
2023-05-05T15:49:33.131Z,98513.50
2023-05-05T15:51:59.809Z,98512.94
2023-05-05T15:54:26.607Z,98510.44
2023-05-05T15:56:53.264Z,98513.19
2023-05-05T15:59:19.959Z,98511.78
2023-05-05T16:01:47.330Z,98511.78
2023-05-05T16:04:14.128Z,98506.75
2023-05-05T16:06:40.966Z,98508.69
2023-05-05T16:09:07.740Z,98505.47
2023-05-05T16:11:34.475Z,98502.97
2023-05-05T16:14:01.108Z,98500.59
2023-05-05T16:16:27.774Z,98500.88
2023-05-05T16:18:54.456Z,98499.22
2023-05-05T16:21:21.079Z,98496.56
2023-05-05T16:23:47.741Z,98494.16
2023-05-05T16:26:14.412Z,98498.88
2023-05-05T16:28:41.052Z,98495.81
2023-05-05T16:31:10.730Z,98498.56
2023-05-05T16:33:40.868Z,98498.81
2023-05-05T16:36:12.587Z,98488.25
2023-05-05T16:38:40.488Z,98495.59
2023-05-05T16:41:07.765Z,98492.66
2023-05-05T16:43:35.315Z,98494.59
2023-05-05T16:46:02.110Z,98490.63
2023-05-05T16:48:28.821Z,98490.75
2023-05-05T16:50:59.018Z,98494.88
2023-05-05T16:53:26.232Z,98491.38
2023-05-05T16:55:53.780Z,98496.59
2023-05-05T16:58:21.448Z,98502.66
2023-05-05T17:00:51.927Z,98487.84
2023-05-05T17:03:20.227Z,98493.63
2023-05-05T17:05:50.013Z,98488.84
2023-05-05T17:08:17.074Z,98494.63
2023-05-05T17:10:45.125Z,98497.88
2023-05-05T17:13:13.389Z,98494.63
2023-05-05T17:15:40.632Z,98496.81
2023-05-05T17:18:08.115Z,98499.81
2023-05-05T17:20:36.404Z,98493.69
2023-05-05T17:23:03.370Z,98497.31
2023-05-05T17:25:29.956Z,98499.34
2023-05-05T17:27:56.873Z,98500.78
2023-05-05T17:30:23.537Z,98495.16
2023-05-05T17:32:50.254Z,98496.13
2023-05-05T17:35:16.975Z,98491.59
2023-05-05T17:37:43.591Z,98496.88
2023-05-05T17:40:10.500Z,98501.88
2023-05-05T17:42:38.349Z,98506.25
2023-05-05T17:45:08.813Z,98505.88
2023-05-05T17:47:36.303Z,98500.38
2023-05-05T17:50:03.342Z,98503.84
2023-05-05T17:52:30.052Z,98504.28
2023-05-05T17:54:57.002Z,98508.66
2023-05-05T17:57:24.834Z,98501.03
2023-05-05T17:59:53.580Z,98504.22
2023-05-05T18:02:20.514Z,98506.47
2023-05-05T18:04:47.427Z,98505.97
2023-05-05T18:07:14.714Z,98499.91
2023-05-05T18:09:41.457Z,98498.22
2023-05-05T18:12:08.219Z,98499.84
2023-05-05T18:14:34.910Z,98505.06
2023-05-05T18:17:01.631Z,98502.88
2023-05-05T18:19:28.416Z,98507.81
2023-05-05T18:21:55.106Z,98503.63
2023-05-05T18:24:21.714Z,98502.50
2023-05-05T18:26:50.509Z,98504.09
2023-05-05T18:29:18.591Z,98508.09
2023-05-05T18:31:48.649Z,98503.19
2023-05-05T18:34:16.831Z,98511.72
2023-05-05T18:36:43.486Z,98510.88
2023-05-05T18:39:10.295Z,98517.25
2023-05-05T18:41:37.153Z,98515.47
2023-05-05T18:44:03.947Z,98517.69
2023-05-05T18:46:33.571Z,98522.31
2023-05-05T18:49:00.705Z,98524.69
2023-05-05T18:51:27.944Z,98527.84
2023-05-05T18:53:54.990Z,98523.13
2023-05-05T18:56:21.890Z,98525.94
2023-05-05T18:58:48.928Z,98532.84
2023-05-05T19:01:16.175Z,98538.28
2023-05-05T19:03:47.827Z,98539.34
2023-05-05T19:06:14.823Z,98540.38
2023-05-05T19:08:42.128Z,98538.06
2023-05-05T19:11:08.858Z,98543.06
2023-05-05T19:13:35.432Z,98538.84
2023-05-05T19:16:02.333Z,98535.75
2023-05-05T19:18:28.984Z,98537.63
2023-05-05T19:20:55.632Z,98540.19
2023-05-05T19:23:22.739Z,98533.47
2023-05-05T19:25:52.849Z,98538.06
2023-05-05T19:28:19.673Z,98530.41
2023-05-05T19:30:48.888Z,98522.09
2023-05-05T19:33:16.277Z,98530.06
2023-05-05T19:35:44.939Z,98538.28
2023-05-05T19:38:12.048Z,98531.59
2023-05-05T19:40:39.760Z,98537.94
2023-05-05T19:43:06.425Z,98534.66
2023-05-05T19:45:33.875Z,98537.59
2023-05-05T19:48:01.683Z,98539.84
2023-05-05T19:50:30.403Z,98530.44
2023-05-05T19:52:57.818Z,98535.00
2023-05-05T19:55:24.636Z,98544.53
2023-05-05T19:57:51.507Z,98535.00
2023-05-05T20:00:18.755Z,98530.34
2023-05-05T20:02:45.884Z,98528.88
2023-05-05T20:05:17.271Z,98528.13
2023-05-05T20:07:46.921Z,98520.63
2023-05-05T20:10:16.827Z,98531.19
2023-05-05T20:12:48.471Z,98536.53
2023-05-05T20:15:18.869Z,98533.16
2023-05-05T20:17:49.489Z,98531.78
2023-05-05T20:20:22.726Z,98527.47
2023-05-05T20:22:49.858Z,98522.41
2023-05-05T20:25:16.711Z,98521.72
2023-05-05T20:27:43.547Z,98518.47
2023-05-05T20:30:11.023Z,98519.13
2023-05-05T20:32:38.379Z,98507.16
2023-05-05T20:35:06.210Z,98515.19
2023-05-05T20:37:33.175Z,98513.63
2023-05-05T20:39:59.788Z,98512.88
2023-05-05T20:42:27.859Z,98515.75
2023-05-05T20:44:54.753Z,98518.53
2023-05-05T20:47:21.446Z,98516.50
2023-05-05T20:49:48.088Z,98510.50
2023-05-05T20:52:14.702Z,98515.91
2023-05-05T20:54:41.361Z,98516.19
2023-05-05T20:57:07.997Z,98512.16
2023-05-05T20:59:34.739Z,98513.25
2023-05-05T21:02:04.185Z,98504.84
2023-05-05T21:04:30.901Z,98506.72
2023-05-05T21:06:57.570Z,98511.19
2023-05-05T21:09:24.270Z,98502.59
2023-05-05T21:11:51.028Z,98510.63
2023-05-05T21:14:17.731Z,98502.03
2023-05-05T21:16:44.446Z,98503.31
2023-05-05T21:19:11.130Z,98504.44
2023-05-05T21:21:37.693Z,98512.00
2023-05-05T21:24:07.007Z,98504.53
2023-05-05T21:26:34.438Z,98504.75
2023-05-05T21:29:01.111Z,98503.56
2023-05-05T21:31:27.806Z,98499.38
2023-05-05T21:33:54.487Z,98496.78
2023-05-05T21:36:21.393Z,98500.56
2023-05-05T21:38:48.128Z,98497.38
2023-05-05T21:41:14.823Z,98497.91
2023-05-05T21:43:41.456Z,98499.16
2023-05-05T21:46:08.795Z,98501.94
2023-05-05T21:48:35.561Z,98504.72
2023-05-05T21:51:02.212Z,98510.13
2023-05-05T21:53:28.845Z,98509.38
2023-05-05T21:55:55.484Z,98509.63
2023-05-05T21:58:23.857Z,98507.84
2023-05-05T22:00:50.943Z,98508.59
2023-05-05T22:03:17.766Z,98508.59
2023-05-05T22:05:44.564Z,98507.84
2023-05-05T22:08:11.486Z,98502.63
2023-05-05T22:10:39.244Z,98506.44
2023-05-05T22:13:05.912Z,98505.75
2023-05-05T22:15:42.621Z,98506.81
2023-05-05T22:18:13.061Z,98507.78
2023-05-05T22:20:40.627Z,98504.38
2023-05-05T22:23:07.373Z,98500.13
2023-05-05T22:25:33.956Z,98495.22
2023-05-05T22:28:02.855Z,98504.72
2023-05-05T22:30:29.449Z,98500.75
2023-05-05T22:32:56.208Z,98496.44
2023-05-05T22:35:22.877Z,98493.84
2023-05-05T22:37:49.481Z,98493.19
2023-05-05T22:40:16.224Z,98496.19
2023-05-05T22:42:42.967Z,98498.19
2023-05-05T22:45:10.404Z,98496.00
2023-05-05T22:47:37.413Z,98492.94
2023-05-05T22:50:04.251Z,98493.16
2023-05-05T22:52:30.837Z,98501.16
2023-05-05T22:54:57.458Z,98491.56
2023-05-05T22:57:24.367Z,98488.19
2023-05-05T22:59:51.165Z,98490.88
2023-05-05T23:02:17.848Z,98495.56
2023-05-05T23:04:45.135Z,98495.75
2023-05-05T23:07:12.914Z,98496.81
2023-05-05T23:09:39.664Z,98497.81
2023-05-05T23:12:06.673Z,98493.66
2023-05-05T23:14:33.279Z,98497.22
2023-05-05T23:16:59.973Z,98497.22
2023-05-05T23:19:27.160Z,98488.53
2023-05-05T23:21:53.935Z,98488.63
2023-05-05T23:24:21.871Z,98487.25
2023-05-05T23:26:48.530Z,98484.63
2023-05-05T23:29:15.114Z,98484.97
2023-05-05T23:31:41.672Z,98482.81
2023-05-05T23:34:08.607Z,98491.22
2023-05-05T23:36:35.250Z,98500.88
2023-05-05T23:39:01.850Z,98488.41
2023-05-05T23:41:28.427Z,98482.34
2023-05-05T23:43:55.069Z,98477.13
2023-05-05T23:46:21.696Z,98467.03
2023-05-05T23:48:49.728Z,98475.59
2023-05-05T23:51:17.031Z,98474.69
2023-05-05T23:53:43.867Z,98473.78
2023-05-05T23:56:10.548Z,98465.19
2023-05-05T23:58:37.090Z,98459.28
